Date,TemperatureHighF,TemperatureAvgF,TemperatureLowF,DewpointHighF,DewpointAvgF,DewpointLowF,HumidityHigh,HumidityAvg,HumidityLow,PressureMaxIn,PressureMinIn,WindSpeedMaxMPH,WindSpeedAvgMPH,GustSpeedMaxMPH,PrecipitationSumIn
2013-10-1,80.8,68.5,59.8,66.9,63.8,58.6,98,86,60,29.94,29.85,7,5,14,0.00
2013-10-2,80.8,69.4,62.3,69.0,65.4,61.7,99,88,64,30.02,29.91,8,2,13,0.01
2013-10-3,82.4,70.2,63.8,72.6,67.1,62.6,98,91,66,29.91,29.77,8,5,16,1.14
2013-10-4,83.6,73.6,64.7,73.0,68.8,62.9,98,86,64,29.91,29.83,8,5,19,0.00
2013-10-5,75.4,69.0,56.1,71.6,66.3,52.3,97,91,80,29.86,29.75,9,4,20,0.06
2013-10-6,55.4,49.1,44.7,51.7,44.1,40.1,96,84,62,29.80,29.73,8,4,17,0.01
2013-10-7,70.7,55.9,42.5,50.8,46.9,41.6,98,75,41,30.07,29.79,12,4,21,0.01
2013-10-8,76.7,60.9,46.1,54.3,48.8,44.5,96,68,39,30.16,30.06,8,3,19,0.00
2013-10-9,73.3,60.5,48.0,51.0,48.2,45.6,92,66,39,30.18,30.07,7,2,14,0.00
2013-10-10,76.8,62.8,51.3,59.8,53.8,47.0,89,74,52,30.12,29.97,7,2,16,0.00
2013-10-11,78.0,66.1,55.7,61.4,56.7,53.8,95,74,48,30.00,29.84,12,6,25,0.00
2013-10-12,73.5,62.9,47.8,61.7,52.3,40.2,92,70,35,30.18,29.88,11,6,19,0.00
2013-10-13,66.5,52.9,40.5,42.9,36.7,31.0,87,58,28,30.38,30.17,8,2,17,0.00
2013-10-14,65.2,53.1,40.4,46.3,40.6,35.5,90,65,40,30.37,30.03,7,3,15,0.00
2013-10-15,70.0,58.4,44.7,63.3,51.7,40.5,97,79,61,30.03,29.76,12,6,20,0.05
2013-10-16,52.5,49.6,43.5,45.6,44.2,40.4,92,82,75,29.96,29.87,12,4,22,0.00
2013-10-17,61.1,50.8,46.1,48.8,43.1,37.8,97,77,44,29.95,29.82,9,3,21,0.14
2013-10-18,54.5,45.5,36.9,42.4,39.3,35.6,97,80,56,29.99,29.84,14,6,24,0.00
2013-10-19,56.2,46.4,36.0,41.5,38.3,35.0,96,75,47,29.96,29.81,12,5,24,0.00
2013-10-20,68.7,53.1,39.6,47.9,42.5,37.3,94,70,41,29.85,29.69,10,4,22,0.00
2013-10-21,55.1,43.8,33.3,48.7,33.1,23.8,88,68,42,30.00,29.81,20,9,30,0.00
2013-10-22,40.2,35.2,30.8,38.9,32.9,25.2,97,91,75,30.00,29.84,7,3,17,0.46
2013-10-23,45.1,38.0,31.3,36.2,32.3,29.3,97,81,60,30.07,29.97,14,8,21,0.01
2013-10-24,42.9,35.2,26.5,35.5,27.2,23.2,95,74,50,30.36,30.06,17,9,26,0.00
2013-10-25,53.5,38.7,24.6,35.7,27.9,21.8,92,69,37,30.44,30.10,9,4,19,0.00
2013-10-26,54.3,44.8,33.0,37.8,31.7,27.2,79,61,38,30.11,29.93,24,9,32,0.01
2013-10-27,56.5,42.1,28.4,35.7,30.8,25.5,90,67,40,30.10,29.97,6,3,15,0.00
2013-10-28,59.3,43.6,36.7,41.4,34.7,30.5,85,72,39,30.30,30.05,7,4,15,0.00
2013-10-29,54.0,46.7,37.6,50.6,41.9,35.8,96,84,63,30.29,30.08,6,3,15,0.00
2013-10-30,63.6,56.8,51.7,63.3,56.3,50.6,99,98,96,30.08,29.74,12,5,22,1.40
2013-10-31,63.6,56.6,44.3,63.3,55.6,43.0,99,97,92,29.73,29.27,17,8,28,0.71